sensor_id;sensor_type;location;lat;lon;timestamp;temperature;humidity
5711;DHT22;61291;52.524;13.422;2023-07-31T00:00:58;15.40;99.90
5711;DHT22;61291;52.524;13.422;2023-07-31T00:03:23;15.30;99.90
5711;DHT22;61291;52.524;13.422;2023-07-31T00:05:49;15.20;99.90
5711;DHT22;61291;52.524;13.422;2023-07-31T00:08:14;15.10;99.90
5711;DHT22;61291;52.524;13.422;2023-07-31T00:10:40;14.90;99.90
5711;DHT22;61291;52.524;13.422;2023-07-31T00:13:05;14.80;99.90
5711;DHT22;61291;52.524;13.422;2023-07-31T00:15:31;14.70;99.90
5711;DHT22;61291;52.524;13.422;2023-07-31T00:17:56;14.70;99.90
5711;DHT22;61291;52.524;13.422;2023-07-31T00:20:22;14.60;99.90
5711;DHT22;61291;52.524;13.422;2023-07-31T00:22:47;14.60;99.90
5711;DHT22;61291;52.524;13.422;2023-07-31T00:25:13;14.60;99.90
5711;DHT22;61291;52.524;13.422;2023-07-31T00:27:38;14.60;99.90
5711;DHT22;61291;52.524;13.422;2023-07-31T00:30:04;14.70;99.90
5711;DHT22;61291;52.524;13.422;2023-07-31T00:32:30;14.70;99.90
5711;DHT22;61291;52.524;13.422;2023-07-31T00:34:55;14.70;99.90
5711;DHT22;61291;52.524;13.422;2023-07-31T00:37:21;14.70;99.90
5711;DHT22;61291;52.524;13.422;2023-07-31T00:39:46;14.70;99.90
5711;DHT22;61291;52.524;13.422;2023-07-31T00:42:11;14.70;99.90
5711;DHT22;61291;52.524;13.422;2023-07-31T00:44:37;14.70;99.90
5711;DHT22;61291;52.524;13.422;2023-07-31T00:47:03;14.80;99.90
5711;DHT22;61291;52.524;13.422;2023-07-31T00:49:28;14.80;99.90
5711;DHT22;61291;52.524;13.422;2023-07-31T00:51:54;14.80;99.90
5711;DHT22;61291;52.524;13.422;2023-07-31T00:54:19;14.90;99.90
5711;DHT22;61291;52.524;13.422;2023-07-31T00:56:46;15.00;99.90
5711;DHT22;61291;52.524;13.422;2023-07-31T00:59:13;15.10;99.90
5711;DHT22;61291;52.524;13.422;2023-07-31T01:01:40;15.20;99.90
5711;DHT22;61291;52.524;13.422;2023-07-31T01:04:05;15.20;99.90
5711;DHT22;61291;52.524;13.422;2023-07-31T01:06:43;15.30;99.90
5711;DHT22;61291;52.524;13.422;2023-07-31T01:12:27;15.50;99.90
5711;DHT22;61291;52.524;13.422;2023-07-31T01:15:08;15.50;99.90
5711;DHT22;61291;52.524;13.422;2023-07-31T01:17:37;15.50;99.90
5711;DHT22;61291;52.524;13.422;2023-07-31T01:20:06;15.50;99.90
5711;DHT22;61291;52.524;13.422;2023-07-31T01:25:44;15.70;99.90
5711;DHT22;61291;52.524;13.422;2023-07-31T01:28:13;15.70;99.90
5711;DHT22;61291;52.524;13.422;2023-07-31T01:30:44;15.80;99.90
5711;DHT22;61291;52.524;13.422;2023-07-31T01:33:11;15.80;99.90
5711;DHT22;61291;52.524;13.422;2023-07-31T01:35:37;15.80;99.90
5711;DHT22;61291;52.524;13.422;2023-07-31T01:38:04;15.80;99.90
5711;DHT22;61291;52.524;13.422;2023-07-31T01:40:30;15.90;99.90
5711;DHT22;61291;52.524;13.422;2023-07-31T01:42:55;15.90;99.90
5711;DHT22;61291;52.524;13.422;2023-07-31T01:45:21;15.90;99.90
5711;DHT22;61291;52.524;13.422;2023-07-31T01:47:46;15.90;99.90
5711;DHT22;61291;52.524;13.422;2023-07-31T01:50:12;15.90;99.90
5711;DHT22;61291;52.524;13.422;2023-07-31T01:52:37;15.90;99.90
5711;DHT22;61291;52.524;13.422;2023-07-31T01:55:03;15.90;99.90
5711;DHT22;61291;52.524;13.422;2023-07-31T01:57:29;15.90;99.90
5711;DHT22;61291;52.524;13.422;2023-07-31T01:59:54;15.90;99.90
5711;DHT22;61291;52.524;13.422;2023-07-31T02:02:20;16.00;99.90
5711;DHT22;61291;52.524;13.422;2023-07-31T02:04:46;16.00;99.90
5711;DHT22;61291;52.524;13.422;2023-07-31T02:07:11;16.00;99.90
5711;DHT22;61291;52.524;13.422;2023-07-31T02:09:37;16.00;99.90
5711;DHT22;61291;52.524;13.422;2023-07-31T02:12:03;16.00;99.90
5711;DHT22;61291;52.524;13.422;2023-07-31T02:14:28;16.00;99.90
5711;DHT22;61291;52.524;13.422;2023-07-31T02:16:54;16.00;99.90
5711;DHT22;61291;52.524;13.422;2023-07-31T02:19:19;16.00;99.90
5711;DHT22;61291;52.524;13.422;2023-07-31T02:21:45;16.00;99.90
5711;DHT22;61291;52.524;13.422;2023-07-31T02:24:10;16.00;99.90
5711;DHT22;61291;52.524;13.422;2023-07-31T02:26:36;16.00;99.90
5711;DHT22;61291;52.524;13.422;2023-07-31T02:29:01;16.00;99.90
5711;DHT22;61291;52.524;13.422;2023-07-31T02:31:26;16.00;99.90
5711;DHT22;61291;52.524;13.422;2023-07-31T02:33:52;16.00;99.90
5711;DHT22;61291;52.524;13.422;2023-07-31T02:36:17;16.00;99.90
5711;DHT22;61291;52.524;13.422;2023-07-31T02:38:43;16.00;99.90
5711;DHT22;61291;52.524;13.422;2023-07-31T02:41:08;16.10;99.90
5711;DHT22;61291;52.524;13.422;2023-07-31T02:43:34;16.00;99.90
5711;DHT22;61291;52.524;13.422;2023-07-31T02:45:59;16.10;99.90
5711;DHT22;61291;52.524;13.422;2023-07-31T02:48:25;16.00;99.90
5711;DHT22;61291;52.524;13.422;2023-07-31T02:50:50;16.00;99.90
5711;DHT22;61291;52.524;13.422;2023-07-31T02:53:16;16.00;99.90
5711;DHT22;61291;52.524;13.422;2023-07-31T02:55:41;16.00;99.90
5711;DHT22;61291;52.524;13.422;2023-07-31T02:58:07;16.00;99.90
5711;DHT22;61291;52.524;13.422;2023-07-31T03:00:32;16.00;99.90
5711;DHT22;61291;52.524;13.422;2023-07-31T03:02:58;16.10;99.90
5711;DHT22;61291;52.524;13.422;2023-07-31T03:05:23;16.10;99.90
5711;DHT22;61291;52.524;13.422;2023-07-31T03:07:49;16.10;99.90
5711;DHT22;61291;52.524;13.422;2023-07-31T03:10:14;16.10;99.90
5711;DHT22;61291;52.524;13.422;2023-07-31T03:12:40;16.10;99.90
5711;DHT22;61291;52.524;13.422;2023-07-31T03:15:06;16.10;99.90
5711;DHT22;61291;52.524;13.422;2023-07-31T03:17:31;16.10;99.90
5711;DHT22;61291;52.524;13.422;2023-07-31T03:19:57;16.10;99.90
5711;DHT22;61291;52.524;13.422;2023-07-31T03:22:22;16.10;99.90
5711;DHT22;61291;52.524;13.422;2023-07-31T03:24:48;16.10;99.90
5711;DHT22;61291;52.524;13.422;2023-07-31T03:27:13;16.10;99.90
5711;DHT22;61291;52.524;13.422;2023-07-31T03:29:39;16.10;99.90
5711;DHT22;61291;52.524;13.422;2023-07-31T03:32:04;16.10;99.90
5711;DHT22;61291;52.524;13.422;2023-07-31T03:34:30;16.00;99.90
5711;DHT22;61291;52.524;13.422;2023-07-31T03:36:57;16.00;99.90
5711;DHT22;61291;52.524;13.422;2023-07-31T03:39:23;16.00;99.90
5711;DHT22;61291;52.524;13.422;2023-07-31T03:41:48;16.00;99.90
5711;DHT22;61291;52.524;13.422;2023-07-31T03:44:14;16.00;99.90
5711;DHT22;61291;52.524;13.422;2023-07-31T03:46:39;16.00;99.90
5711;DHT22;61291;52.524;13.422;2023-07-31T03:49:05;16.00;99.90
5711;DHT22;61291;52.524;13.422;2023-07-31T03:51:30;16.00;99.90
5711;DHT22;61291;52.524;13.422;2023-07-31T03:53:56;16.10;99.90
5711;DHT22;61291;52.524;13.422;2023-07-31T03:56:21;16.10;99.90
5711;DHT22;61291;52.524;13.422;2023-07-31T03:58:47;16.10;99.90
5711;DHT22;61291;52.524;13.422;2023-07-31T04:01:13;16.10;99.90
5711;DHT22;61291;52.524;13.422;2023-07-31T04:03:38;16.10;99.90
5711;DHT22;61291;52.524;13.422;2023-07-31T04:06:04;16.10;99.90
5711;DHT22;61291;52.524;13.422;2023-07-31T04:08:29;16.20;99.90
5711;DHT22;61291;52.524;13.422;2023-07-31T04:10:55;16.20;99.90
5711;DHT22;61291;52.524;13.422;2023-07-31T04:13:22;16.30;99.90
5711;DHT22;61291;52.524;13.422;2023-07-31T04:15:50;16.40;99.90
5711;DHT22;61291;52.524;13.422;2023-07-31T04:18:16;16.40;99.90
5711;DHT22;61291;52.524;13.422;2023-07-31T04:20:41;16.40;99.90
5711;DHT22;61291;52.524;13.422;2023-07-31T04:23:07;16.40;99.90
5711;DHT22;61291;52.524;13.422;2023-07-31T04:25:32;16.50;99.90
5711;DHT22;61291;52.524;13.422;2023-07-31T04:28:00;16.60;99.90
5711;DHT22;61291;52.524;13.422;2023-07-31T04:30:25;16.70;99.90
5711;DHT22;61291;52.524;13.422;2023-07-31T04:32:51;16.70;99.90
5711;DHT22;61291;52.524;13.422;2023-07-31T04:35:16;16.80;99.90
5711;DHT22;61291;52.524;13.422;2023-07-31T04:37:42;16.90;99.90
5711;DHT22;61291;52.524;13.422;2023-07-31T04:40:08;16.90;99.90
5711;DHT22;61291;52.524;13.422;2023-07-31T04:42:33;16.90;99.90
5711;DHT22;61291;52.524;13.422;2023-07-31T04:44:59;16.90;99.90
5711;DHT22;61291;52.524;13.422;2023-07-31T04:47:25;16.90;99.90
5711;DHT22;61291;52.524;13.422;2023-07-31T04:49:50;17.00;99.90
5711;DHT22;61291;52.524;13.422;2023-07-31T04:52:16;17.00;99.90
5711;DHT22;61291;52.524;13.422;2023-07-31T04:54:41;17.00;99.90
5711;DHT22;61291;52.524;13.422;2023-07-31T04:57:07;17.10;99.90
5711;DHT22;61291;52.524;13.422;2023-07-31T04:59:32;17.10;99.90
5711;DHT22;61291;52.524;13.422;2023-07-31T05:01:57;17.10;99.90
5711;DHT22;61291;52.524;13.422;2023-07-31T05:04:23;17.20;99.90
5711;DHT22;61291;52.524;13.422;2023-07-31T05:06:48;17.20;99.90
5711;DHT22;61291;52.524;13.422;2023-07-31T05:09:14;17.40;99.90
5711;DHT22;61291;52.524;13.422;2023-07-31T05:11:39;17.50;99.90
5711;DHT22;61291;52.524;13.422;2023-07-31T05:14:05;17.60;99.90
5711;DHT22;61291;52.524;13.422;2023-07-31T05:16:31;17.80;99.90
5711;DHT22;61291;52.524;13.422;2023-07-31T05:18:56;18.10;99.90
5711;DHT22;61291;52.524;13.422;2023-07-31T05:21:22;18.40;99.90
5711;DHT22;61291;52.524;13.422;2023-07-31T05:23:49;18.50;99.90
5711;DHT22;61291;52.524;13.422;2023-07-31T05:26:14;18.60;99.90
5711;DHT22;61291;52.524;13.422;2023-07-31T05:28:40;18.60;99.90
5711;DHT22;61291;52.524;13.422;2023-07-31T05:31:05;18.60;99.90
5711;DHT22;61291;52.524;13.422;2023-07-31T05:33:32;18.60;99.90
5711;DHT22;61291;52.524;13.422;2023-07-31T05:35:57;18.60;99.90
5711;DHT22;61291;52.524;13.422;2023-07-31T05:38:23;18.60;99.90
5711;DHT22;61291;52.524;13.422;2023-07-31T05:40:48;18.70;99.90
5711;DHT22;61291;52.524;13.422;2023-07-31T05:43:14;18.80;99.90
5711;DHT22;61291;52.524;13.422;2023-07-31T05:45:41;18.90;99.90
5711;DHT22;61291;52.524;13.422;2023-07-31T05:48:06;19.10;99.90
5711;DHT22;61291;52.524;13.422;2023-07-31T05:50:32;19.00;99.90
5711;DHT22;61291;52.524;13.422;2023-07-31T05:52:57;19.00;99.90
5711;DHT22;61291;52.524;13.422;2023-07-31T05:55:24;19.00;99.90
5711;DHT22;61291;52.524;13.422;2023-07-31T05:57:52;19.10;99.90
5711;DHT22;61291;52.524;13.422;2023-07-31T06:00:17;19.10;99.90
5711;DHT22;61291;52.524;13.422;2023-07-31T06:02:43;19.30;99.90
5711;DHT22;61291;52.524;13.422;2023-07-31T06:05:08;19.30;99.90
5711;DHT22;61291;52.524;13.422;2023-07-31T06:07:34;19.30;99.90
5711;DHT22;61291;52.524;13.422;2023-07-31T06:09:59;19.40;99.90
5711;DHT22;61291;52.524;13.422;2023-07-31T06:12:31;19.40;99.90
5711;DHT22;61291;52.524;13.422;2023-07-31T06:14:57;19.50;99.90
5711;DHT22;61291;52.524;13.422;2023-07-31T06:17:22;19.70;99.90
5711;DHT22;61291;52.524;13.422;2023-07-31T06:19:48;19.70;99.90
5711;DHT22;61291;52.524;13.422;2023-07-31T06:22:14;19.80;99.90
5711;DHT22;61291;52.524;13.422;2023-07-31T06:24:39;19.90;99.90
5711;DHT22;61291;52.524;13.422;2023-07-31T06:27:05;20.00;99.90
5711;DHT22;61291;52.524;13.422;2023-07-31T06:29:31;19.90;99.90
5711;DHT22;61291;52.524;13.422;2023-07-31T06:31:57;20.00;99.90
5711;DHT22;61291;52.524;13.422;2023-07-31T06:34:22;20.10;99.90
5711;DHT22;61291;52.524;13.422;2023-07-31T06:36:47;20.20;99.90
5711;DHT22;61291;52.524;13.422;2023-07-31T06:39:13;20.30;99.90
5711;DHT22;61291;52.524;13.422;2023-07-31T06:41:38;20.40;99.90
5711;DHT22;61291;52.524;13.422;2023-07-31T06:44:04;20.70;99.90
5711;DHT22;61291;52.524;13.422;2023-07-31T06:46:29;21.00;99.90
5711;DHT22;61291;52.524;13.422;2023-07-31T06:48:55;21.20;99.90
5711;DHT22;61291;52.524;13.422;2023-07-31T06:51:20;21.20;99.90
5711;DHT22;61291;52.524;13.422;2023-07-31T06:53:46;21.10;99.90
5711;DHT22;61291;52.524;13.422;2023-07-31T06:56:12;21.10;99.90
5711;DHT22;61291;52.524;13.422;2023-07-31T06:58:38;21.00;99.90
5711;DHT22;61291;52.524;13.422;2023-07-31T07:01:03;20.90;99.90
5711;DHT22;61291;52.524;13.422;2023-07-31T07:03:29;20.90;99.90
5711;DHT22;61291;52.524;13.422;2023-07-31T07:05:54;21.00;99.90
5711;DHT22;61291;52.524;13.422;2023-07-31T07:08:20;21.20;99.90
5711;DHT22;61291;52.524;13.422;2023-07-31T07:10:46;21.40;99.90
5711;DHT22;61291;52.524;13.422;2023-07-31T07:13:12;21.50;99.90
5711;DHT22;61291;52.524;13.422;2023-07-31T07:15:38;21.30;99.90
5711;DHT22;61291;52.524;13.422;2023-07-31T07:18:04;21.00;99.90
5711;DHT22;61291;52.524;13.422;2023-07-31T07:20:29;20.70;99.90
5711;DHT22;61291;52.524;13.422;2023-07-31T07:22:55;20.60;99.90
5711;DHT22;61291;52.524;13.422;2023-07-31T07:25:20;20.70;99.90
5711;DHT22;61291;52.524;13.422;2023-07-31T07:27:46;21.10;99.90
5711;DHT22;61291;52.524;13.422;2023-07-31T07:30:11;21.40;99.90
5711;DHT22;61291;52.524;13.422;2023-07-31T07:32:37;21.90;99.90
5711;DHT22;61291;52.524;13.422;2023-07-31T07:35:02;22.30;99.90
5711;DHT22;61291;52.524;13.422;2023-07-31T07:37:28;22.30;99.90
5711;DHT22;61291;52.524;13.422;2023-07-31T07:39:54;22.00;99.90
5711;DHT22;61291;52.524;13.422;2023-07-31T07:42:19;22.00;99.90
5711;DHT22;61291;52.524;13.422;2023-07-31T07:44:44;22.20;99.90
5711;DHT22;61291;52.524;13.422;2023-07-31T07:47:10;22.50;99.90
5711;DHT22;61291;52.524;13.422;2023-07-31T07:49:35;22.80;99.90
5711;DHT22;61291;52.524;13.422;2023-07-31T07:52:01;23.30;99.90
5711;DHT22;61291;52.524;13.422;2023-07-31T07:54:27;24.00;99.90
5711;DHT22;61291;52.524;13.422;2023-07-31T07:56:53;24.20;99.90
5711;DHT22;61291;52.524;13.422;2023-07-31T07:59:18;23.90;99.90
5711;DHT22;61291;52.524;13.422;2023-07-31T08:01:44;23.70;99.90
5711;DHT22;61291;52.524;13.422;2023-07-31T08:04:09;23.20;99.90
5711;DHT22;61291;52.524;13.422;2023-07-31T08:06:35;23.00;99.90
5711;DHT22;61291;52.524;13.422;2023-07-31T08:09:00;23.20;99.90
5711;DHT22;61291;52.524;13.422;2023-07-31T08:11:31;23.70;99.90
5711;DHT22;61291;52.524;13.422;2023-07-31T08:13:57;23.80;99.90
5711;DHT22;61291;52.524;13.422;2023-07-31T08:16:22;23.60;99.90
5711;DHT22;61291;52.524;13.422;2023-07-31T08:18:50;23.40;99.90
5711;DHT22;61291;52.524;13.422;2023-07-31T08:21:16;23.20;99.90
5711;DHT22;61291;52.524;13.422;2023-07-31T08:23:41;23.00;99.90
5711;DHT22;61291;52.524;13.422;2023-07-31T08:26:07;23.10;99.90
5711;DHT22;61291;52.524;13.422;2023-07-31T08:28:32;23.30;99.90
5711;DHT22;61291;52.524;13.422;2023-07-31T08:30:58;23.40;99.90
5711;DHT22;61291;52.524;13.422;2023-07-31T08:33:23;23.40;99.90
5711;DHT22;61291;52.524;13.422;2023-07-31T08:35:49;23.20;99.90
5711;DHT22;61291;52.524;13.422;2023-07-31T08:38:14;23.00;99.90
5711;DHT22;61291;52.524;13.422;2023-07-31T08:40:40;23.10;99.90
5711;DHT22;61291;52.524;13.422;2023-07-31T08:43:05;23.10;99.90
5711;DHT22;61291;52.524;13.422;2023-07-31T08:45:32;23.20;99.90
5711;DHT22;61291;52.524;13.422;2023-07-31T08:47:58;23.20;99.90
5711;DHT22;61291;52.524;13.422;2023-07-31T08:50:24;23.50;99.90
5711;DHT22;61291;52.524;13.422;2023-07-31T08:52:51;23.80;99.90
5711;DHT22;61291;52.524;13.422;2023-07-31T08:55:17;24.00;99.90
5711;DHT22;61291;52.524;13.422;2023-07-31T08:57:48;24.40;99.90
5711;DHT22;61291;52.524;13.422;2023-07-31T09:00:16;24.50;99.90
5711;DHT22;61291;52.524;13.422;2023-07-31T09:03:03;24.70;99.90
5711;DHT22;61291;52.524;13.422;2023-07-31T09:05:30;25.00;99.90
5711;DHT22;61291;52.524;13.422;2023-07-31T09:07:57;25.30;99.90
5711;DHT22;61291;52.524;13.422;2023-07-31T09:10:23;25.60;99.90
5711;DHT22;61291;52.524;13.422;2023-07-31T09:12:51;25.80;99.90
5711;DHT22;61291;52.524;13.422;2023-07-31T09:15:17;26.50;99.90
5711;DHT22;61291;52.524;13.422;2023-07-31T09:17:43;26.70;99.90
5711;DHT22;61291;52.524;13.422;2023-07-31T09:20:17;26.90;99.90
5711;DHT22;61291;52.524;13.422;2023-07-31T09:22:43;26.40;99.90
5711;DHT22;61291;52.524;13.422;2023-07-31T09:27:53;25.00;99.90
5711;DHT22;61291;52.524;13.422;2023-07-31T09:30:18;24.60;99.90
5711;DHT22;61291;52.524;13.422;2023-07-31T09:32:45;24.40;99.90
5711;DHT22;61291;52.524;13.422;2023-07-31T09:35:22;24.20;99.90
5711;DHT22;61291;52.524;13.422;2023-07-31T09:37:52;23.60;99.90
5711;DHT22;61291;52.524;13.422;2023-07-31T09:40:31;22.90;99.90
5711;DHT22;61291;52.524;13.422;2023-07-31T09:42:58;22.40;99.90
5711;DHT22;61291;52.524;13.422;2023-07-31T09:45:25;22.10;99.90
5711;DHT22;61291;52.524;13.422;2023-07-31T09:47:50;21.90;99.90
5711;DHT22;61291;52.524;13.422;2023-07-31T09:50:16;22.30;99.90
5711;DHT22;61291;52.524;13.422;2023-07-31T09:52:42;22.50;99.90
5711;DHT22;61291;52.524;13.422;2023-07-31T09:55:09;22.80;99.90
5711;DHT22;61291;52.524;13.422;2023-07-31T09:57:38;22.80;99.90
5711;DHT22;61291;52.524;13.422;2023-07-31T10:00:05;23.00;99.90
5711;DHT22;61291;52.524;13.422;2023-07-31T10:02:32;23.30;99.90
5711;DHT22;61291;52.524;13.422;2023-07-31T10:05:01;23.60;99.90
5711;DHT22;61291;52.524;13.422;2023-07-31T10:07:30;23.50;99.90
5711;DHT22;61291;52.524;13.422;2023-07-31T10:09:59;23.20;99.90
5711;DHT22;61291;52.524;13.422;2023-07-31T10:12:26;23.60;99.90
5711;DHT22;61291;52.524;13.422;2023-07-31T10:14:55;24.60;99.90
5711;DHT22;61291;52.524;13.422;2023-07-31T10:17:22;25.60;99.90
5711;DHT22;61291;52.524;13.422;2023-07-31T10:19:49;25.90;99.90
5711;DHT22;61291;52.524;13.422;2023-07-31T10:22:15;25.40;99.90
5711;DHT22;61291;52.524;13.422;2023-07-31T10:24:42;24.90;99.90
5711;DHT22;61291;52.524;13.422;2023-07-31T10:27:09;24.50;99.90
5711;DHT22;61291;52.524;13.422;2023-07-31T10:29:36;23.80;99.90
5711;DHT22;61291;52.524;13.422;2023-07-31T10:32:03;23.30;99.90
5711;DHT22;61291;52.524;13.422;2023-07-31T10:34:33;23.30;99.90
5711;DHT22;61291;52.524;13.422;2023-07-31T10:37:25;23.50;99.90
5711;DHT22;61291;52.524;13.422;2023-07-31T10:40:23;24.00;99.90
5711;DHT22;61291;52.524;13.422;2023-07-31T10:42:54;24.40;99.90
5711;DHT22;61291;52.524;13.422;2023-07-31T10:45:31;24.50;99.90
5711;DHT22;61291;52.524;13.422;2023-07-31T10:48:14;24.90;99.90
5711;DHT22;61291;52.524;13.422;2023-07-31T10:50:56;25.30;99.90
5711;DHT22;61291;52.524;13.422;2023-07-31T10:53:32;26.40;99.90
5711;DHT22;61291;52.524;13.422;2023-07-31T10:55:59;27.90;99.90
5711;DHT22;61291;52.524;13.422;2023-07-31T10:58:25;29.10;99.90
5711;DHT22;61291;52.524;13.422;2023-07-31T11:00:55;29.50;99.90
5711;DHT22;61291;52.524;13.422;2023-07-31T11:03:25;29.70;99.90
5711;DHT22;61291;52.524;13.422;2023-07-31T11:06:03;29.70;99.90
5711;DHT22;61291;52.524;13.422;2023-07-31T11:08:33;29.70;99.90
5711;DHT22;61291;52.524;13.422;2023-07-31T11:13:41;29.70;99.90
5711;DHT22;61291;52.524;13.422;2023-07-31T11:16:08;29.30;99.90
5711;DHT22;61291;52.524;13.422;2023-07-31T11:18:34;28.20;99.90
5711;DHT22;61291;52.524;13.422;2023-07-31T11:21:00;27.80;99.90
5711;DHT22;61291;52.524;13.422;2023-07-31T11:23:26;27.60;99.90
5711;DHT22;61291;52.524;13.422;2023-07-31T11:25:51;27.70;99.90
5711;DHT22;61291;52.524;13.422;2023-07-31T11:28:18;27.80;99.90
5711;DHT22;61291;52.524;13.422;2023-07-31T11:30:45;27.80;99.90
5711;DHT22;61291;52.524;13.422;2023-07-31T11:33:12;27.60;99.90
5711;DHT22;61291;52.524;13.422;2023-07-31T11:35:44;27.20;99.90
5711;DHT22;61291;52.524;13.422;2023-07-31T11:40:56;27.00;99.90
5711;DHT22;61291;52.524;13.422;2023-07-31T11:43:22;26.50;99.90
5711;DHT22;61291;52.524;13.422;2023-07-31T11:45:49;26.00;99.90
5711;DHT22;61291;52.524;13.422;2023-07-31T11:48:29;25.50;99.90
5711;DHT22;61291;52.524;13.422;2023-07-31T11:50:57;25.70;99.90
5711;DHT22;61291;52.524;13.422;2023-07-31T11:54:10;25.90;99.90
5711;DHT22;61291;52.524;13.422;2023-07-31T11:56:29;26.10;99.90
5711;DHT22;61291;52.524;13.422;2023-07-31T11:58:59;25.90;99.90
5711;DHT22;61291;52.524;13.422;2023-07-31T12:01:26;25.90;99.90
5711;DHT22;61291;52.524;13.422;2023-07-31T12:03:53;26.00;99.90
5711;DHT22;61291;52.524;13.422;2023-07-31T12:06:18;26.00;99.90
5711;DHT22;61291;52.524;13.422;2023-07-31T12:08:46;25.80;99.90
5711;DHT22;61291;52.524;13.422;2023-07-31T12:11:12;25.70;99.90
5711;DHT22;61291;52.524;13.422;2023-07-31T12:13:40;25.60;99.90
5711;DHT22;61291;52.524;13.422;2023-07-31T12:16:05;25.70;99.90
5711;DHT22;61291;52.524;13.422;2023-07-31T12:18:36;25.70;99.90
5711;DHT22;61291;52.524;13.422;2023-07-31T12:21:05;26.20;99.90
5711;DHT22;61291;52.524;13.422;2023-07-31T12:23:32;26.80;99.90
5711;DHT22;61291;52.524;13.422;2023-07-31T12:26:13;27.00;99.90
5711;DHT22;61291;52.524;13.422;2023-07-31T12:28:42;27.40;99.90
5711;DHT22;61291;52.524;13.422;2023-07-31T12:31:10;27.70;99.90
5711;DHT22;61291;52.524;13.422;2023-07-31T12:33:38;27.50;99.50
5711;DHT22;61291;52.524;13.422;2023-07-31T12:36:10;27.20;99.40
5711;DHT22;61291;52.524;13.422;2023-07-31T12:38:36;27.40;99.10
5711;DHT22;61291;52.524;13.422;2023-07-31T12:41:01;27.70;98.30
5711;DHT22;61291;52.524;13.422;2023-07-31T12:43:27;28.20;97.50
5711;DHT22;61291;52.524;13.422;2023-07-31T12:45:54;28.60;97.20
5711;DHT22;61291;52.524;13.422;2023-07-31T12:48:21;29.10;96.80
5711;DHT22;61291;52.524;13.422;2023-07-31T12:50:46;29.60;96.10
5711;DHT22;61291;52.524;13.422;2023-07-31T12:53:12;30.00;95.40
5711;DHT22;61291;52.524;13.422;2023-07-31T12:55:38;30.20;94.40
5711;DHT22;61291;52.524;13.422;2023-07-31T12:58:03;30.20;93.80
5711;DHT22;61291;52.524;13.422;2023-07-31T13:00:29;30.10;93.40
5711;DHT22;61291;52.524;13.422;2023-07-31T13:02:55;30.00;93.20
5711;DHT22;61291;52.524;13.422;2023-07-31T13:05:20;29.40;92.90
5711;DHT22;61291;52.524;13.422;2023-07-31T13:07:47;29.00;93.00
5711;DHT22;61291;52.524;13.422;2023-07-31T13:10:12;28.10;93.10
5711;DHT22;61291;52.524;13.422;2023-07-31T13:12:38;27.00;93.80
5711;DHT22;61291;52.524;13.422;2023-07-31T13:15:05;26.20;95.30
5711;DHT22;61291;52.524;13.422;2023-07-31T13:17:30;26.20;96.80
5711;DHT22;61291;52.524;13.422;2023-07-31T13:19:56;26.20;97.10
5711;DHT22;61291;52.524;13.422;2023-07-31T13:22:21;26.90;96.70
5711;DHT22;61291;52.524;13.422;2023-07-31T13:24:47;27.10;96.60
5711;DHT22;61291;52.524;13.422;2023-07-31T13:27:13;27.30;96.20
5711;DHT22;61291;52.524;13.422;2023-07-31T13:29:39;27.40;95.90
5711;DHT22;61291;52.524;13.422;2023-07-31T13:32:04;27.50;95.90
5711;DHT22;61291;52.524;13.422;2023-07-31T13:34:30;27.40;95.90
5711;DHT22;61291;52.524;13.422;2023-07-31T13:36:55;27.20;96.00
5711;DHT22;61291;52.524;13.422;2023-07-31T13:39:21;27.00;96.00
5711;DHT22;61291;52.524;13.422;2023-07-31T13:41:47;26.90;96.10
5711;DHT22;61291;52.524;13.422;2023-07-31T13:44:13;27.10;96.30
5711;DHT22;61291;52.524;13.422;2023-07-31T13:46:39;27.70;96.10
5711;DHT22;61291;52.524;13.422;2023-07-31T13:49:04;28.10;95.40
5711;DHT22;61291;52.524;13.422;2023-07-31T13:51:30;28.40;95.00
5711;DHT22;61291;52.524;13.422;2023-07-31T13:53:55;28.70;94.30
5711;DHT22;61291;52.524;13.422;2023-07-31T13:56:21;28.90;93.90
5711;DHT22;61291;52.524;13.422;2023-07-31T13:58:46;29.10;93.60
5711;DHT22;61291;52.524;13.422;2023-07-31T14:01:12;29.40;93.20
5711;DHT22;61291;52.524;13.422;2023-07-31T14:03:37;29.10;92.70
5711;DHT22;61291;52.524;13.422;2023-07-31T14:06:03;28.70;92.70
5711;DHT22;61291;52.524;13.422;2023-07-31T14:08:29;28.10;93.00
5711;DHT22;61291;52.524;13.422;2023-07-31T14:10:55;27.70;93.30
5711;DHT22;61291;52.524;13.422;2023-07-31T14:13:21;27.80;93.50
5711;DHT22;61291;52.524;13.422;2023-07-31T14:15:46;27.90;93.20
5711;DHT22;61291;52.524;13.422;2023-07-31T14:18:12;27.70;93.20
5711;DHT22;61291;52.524;13.422;2023-07-31T14:20:37;27.40;93.50
5711;DHT22;61291;52.524;13.422;2023-07-31T14:23:03;27.20;94.10
5711;DHT22;61291;52.524;13.422;2023-07-31T14:25:28;26.90;94.20
5711;DHT22;61291;52.524;13.422;2023-07-31T14:27:54;26.90;94.40
5711;DHT22;61291;52.524;13.422;2023-07-31T14:30:19;26.90;94.90
5711;DHT22;61291;52.524;13.422;2023-07-31T14:32:45;26.70;94.80
5711;DHT22;61291;52.524;13.422;2023-07-31T14:35:11;26.70;95.10
5711;DHT22;61291;52.524;13.422;2023-07-31T14:37:43;26.70;95.10
5711;DHT22;61291;52.524;13.422;2023-07-31T14:40:11;26.60;95.20
5711;DHT22;61291;52.524;13.422;2023-07-31T14:42:38;26.80;95.20
5711;DHT22;61291;52.524;13.422;2023-07-31T14:45:04;26.80;95.00
5711;DHT22;61291;52.524;13.422;2023-07-31T14:47:30;26.60;94.80
5711;DHT22;61291;52.524;13.422;2023-07-31T14:49:59;26.40;95.00
5711;DHT22;61291;52.524;13.422;2023-07-31T14:52:25;26.20;95.30
5711;DHT22;61291;52.524;13.422;2023-07-31T14:54:50;26.00;95.30
5711;DHT22;61291;52.524;13.422;2023-07-31T14:57:16;25.90;95.40
5711;DHT22;61291;52.524;13.422;2023-07-31T14:59:41;25.80;95.40
5711;DHT22;61291;52.524;13.422;2023-07-31T15:02:09;25.70;95.40
5711;DHT22;61291;52.524;13.422;2023-07-31T15:04:35;25.40;95.20
5711;DHT22;61291;52.524;13.422;2023-07-31T15:07:01;25.30;95.40
5711;DHT22;61291;52.524;13.422;2023-07-31T15:09:27;25.00;95.60
5711;DHT22;61291;52.524;13.422;2023-07-31T15:11:52;24.90;95.90
5711;DHT22;61291;52.524;13.422;2023-07-31T15:14:18;24.70;96.20
5711;DHT22;61291;52.524;13.422;2023-07-31T15:16:43;24.50;96.40
5711;DHT22;61291;52.524;13.422;2023-07-31T15:19:09;24.30;96.70
5711;DHT22;61291;52.524;13.422;2023-07-31T15:21:36;24.10;97.00
5711;DHT22;61291;52.524;13.422;2023-07-31T15:24:02;24.10;97.50
5711;DHT22;61291;52.524;13.422;2023-07-31T15:26:27;24.30;97.90
5711;DHT22;61291;52.524;13.422;2023-07-31T15:29:04;24.70;98.10
5711;DHT22;61291;52.524;13.422;2023-07-31T15:31:34;25.60;98.20
5711;DHT22;61291;52.524;13.422;2023-07-31T15:33:59;26.20;98.00
5711;DHT22;61291;52.524;13.422;2023-07-31T15:36:25;26.20;97.70
5711;DHT22;61291;52.524;13.422;2023-07-31T15:38:51;25.60;97.30
5711;DHT22;61291;52.524;13.422;2023-07-31T15:41:17;25.20;97.50